sensor_id;sensor_type;location;lat;lon;timestamp;temperature;humidity
38183;DHT22;23991;52.430;10.586;2023-09-12T00:02:18;21.90;71.60
38183;DHT22;23991;52.430;10.586;2023-09-12T00:04:44;21.80;71.60
38183;DHT22;23991;52.430;10.586;2023-09-12T00:07:10;21.80;71.80
38183;DHT22;23991;52.430;10.586;2023-09-12T00:09:35;21.80;71.80
38183;DHT22;23991;52.430;10.586;2023-09-12T00:12:01;21.80;71.60
38183;DHT22;23991;52.430;10.586;2023-09-12T00:14:27;21.80;71.80
38183;DHT22;23991;52.430;10.586;2023-09-12T00:16:53;21.70;71.80
38183;DHT22;23991;52.430;10.586;2023-09-12T00:19:20;21.70;71.90
38183;DHT22;23991;52.430;10.586;2023-09-12T00:21:49;21.70;71.90
38183;DHT22;23991;52.430;10.586;2023-09-12T00:24:15;21.70;72.10
38183;DHT22;23991;52.430;10.586;2023-09-12T00:26:41;21.70;72.30
38183;DHT22;23991;52.430;10.586;2023-09-12T00:29:06;21.60;72.40
38183;DHT22;23991;52.430;10.586;2023-09-12T00:31:32;21.60;72.50
38183;DHT22;23991;52.430;10.586;2023-09-12T00:33:58;21.60;72.50
38183;DHT22;23991;52.430;10.586;2023-09-12T00:36:23;21.50;72.50
38183;DHT22;23991;52.430;10.586;2023-09-12T00:38:49;21.50;72.50
38183;DHT22;23991;52.430;10.586;2023-09-12T00:41:15;21.50;72.50
38183;DHT22;23991;52.430;10.586;2023-09-12T00:43:40;21.50;72.60
38183;DHT22;23991;52.430;10.586;2023-09-12T00:46:06;21.40;73.00
38183;DHT22;23991;52.430;10.586;2023-09-12T00:48:32;21.40;73.20
38183;DHT22;23991;52.430;10.586;2023-09-12T00:50:58;21.40;73.00
38183;DHT22;23991;52.430;10.586;2023-09-12T00:53:25;21.40;73.10
38183;DHT22;23991;52.430;10.586;2023-09-12T00:55:54;21.40;73.10
38183;DHT22;23991;52.430;10.586;2023-09-12T00:58:22;21.40;73.50
38183;DHT22;23991;52.430;10.586;2023-09-12T01:00:48;21.40;73.70
38183;DHT22;23991;52.430;10.586;2023-09-12T01:03:14;21.30;73.70
38183;DHT22;23991;52.430;10.586;2023-09-12T01:05:42;21.30;73.90
38183;DHT22;23991;52.430;10.586;2023-09-12T01:08:08;21.30;74.00
38183;DHT22;23991;52.430;10.586;2023-09-12T01:10:33;21.30;74.10
38183;DHT22;23991;52.430;10.586;2023-09-12T01:12:59;21.30;74.30
38183;DHT22;23991;52.430;10.586;2023-09-12T01:15:25;21.30;74.40
38183;DHT22;23991;52.430;10.586;2023-09-12T01:17:51;21.30;74.30
38183;DHT22;23991;52.430;10.586;2023-09-12T01:20:23;21.20;74.40
38183;DHT22;23991;52.430;10.586;2023-09-12T01:22:56;21.20;74.20
38183;DHT22;23991;52.430;10.586;2023-09-12T01:28:05;21.10;74.40
38183;DHT22;23991;52.430;10.586;2023-09-12T01:30:33;21.20;74.50
38183;DHT22;23991;52.430;10.586;2023-09-12T01:33:00;21.10;74.30
38183;DHT22;23991;52.430;10.586;2023-09-12T01:35:26;21.10;75.10
38183;DHT22;23991;52.430;10.586;2023-09-12T01:37:52;21.10;75.60
38183;DHT22;23991;52.430;10.586;2023-09-12T01:40:23;21.10;75.70
38183;DHT22;23991;52.430;10.586;2023-09-12T01:42:52;21.10;75.90
38183;DHT22;23991;52.430;10.586;2023-09-12T01:45:18;21.00;75.90
38183;DHT22;23991;52.430;10.586;2023-09-12T01:47:46;21.10;75.80
38183;DHT22;23991;52.430;10.586;2023-09-12T01:50:13;21.10;75.80
38183;DHT22;23991;52.430;10.586;2023-09-12T01:52:40;21.00;75.90
38183;DHT22;23991;52.430;10.586;2023-09-12T01:55:07;21.00;75.90
38183;DHT22;23991;52.430;10.586;2023-09-12T01:57:37;21.00;75.90
38183;DHT22;23991;52.430;10.586;2023-09-12T02:00:04;21.00;75.90
38183;DHT22;23991;52.430;10.586;2023-09-12T02:02:29;21.00;76.10
38183;DHT22;23991;52.430;10.586;2023-09-12T02:05:14;21.00;76.10
38183;DHT22;23991;52.430;10.586;2023-09-12T02:07:44;20.90;76.30
38183;DHT22;23991;52.430;10.586;2023-09-12T02:10:10;21.00;76.30
38183;DHT22;23991;52.430;10.586;2023-09-12T02:12:36;20.90;76.20
38183;DHT22;23991;52.430;10.586;2023-09-12T02:15:02;20.90;76.20
38183;DHT22;23991;52.430;10.586;2023-09-12T02:17:27;20.90;76.20
38183;DHT22;23991;52.430;10.586;2023-09-12T02:19:53;20.80;76.40
38183;DHT22;23991;52.430;10.586;2023-09-12T02:22:19;20.80;76.40
38183;DHT22;23991;52.430;10.586;2023-09-12T02:24:44;20.80;76.40
38183;DHT22;23991;52.430;10.586;2023-09-12T02:27:10;20.80;76.40
38183;DHT22;23991;52.430;10.586;2023-09-12T02:29:38;20.80;76.60
38183;DHT22;23991;52.430;10.586;2023-09-12T02:32:04;20.80;76.70
38183;DHT22;23991;52.430;10.586;2023-09-12T02:34:29;20.80;76.70
38183;DHT22;23991;52.430;10.586;2023-09-12T02:36:55;20.70;76.50
38183;DHT22;23991;52.430;10.586;2023-09-12T02:39:21;20.70;76.30
38183;DHT22;23991;52.430;10.586;2023-09-12T02:41:46;20.70;76.30
38183;DHT22;23991;52.430;10.586;2023-09-12T02:44:15;20.70;76.40
38183;DHT22;23991;52.430;10.586;2023-09-12T02:46:41;20.60;76.30
38183;DHT22;23991;52.430;10.586;2023-09-12T02:49:07;20.60;76.50
38183;DHT22;23991;52.430;10.586;2023-09-12T02:51:33;20.60;76.60
38183;DHT22;23991;52.430;10.586;2023-09-12T02:53:58;20.60;76.30
38183;DHT22;23991;52.430;10.586;2023-09-12T02:56:24;20.50;76.20
38183;DHT22;23991;52.430;10.586;2023-09-12T02:58:50;20.50;76.40
38183;DHT22;23991;52.430;10.586;2023-09-12T03:01:19;20.50;76.60
38183;DHT22;23991;52.430;10.586;2023-09-12T03:03:49;20.50;76.70
38183;DHT22;23991;52.430;10.586;2023-09-12T03:06:15;20.40;76.70
38183;DHT22;23991;52.430;10.586;2023-09-12T03:08:42;20.40;76.70
38183;DHT22;23991;52.430;10.586;2023-09-12T03:11:09;20.40;76.80
38183;DHT22;23991;52.430;10.586;2023-09-12T03:13:40;20.40;76.70
38183;DHT22;23991;52.430;10.586;2023-09-12T03:16:12;20.40;76.80
38183;DHT22;23991;52.430;10.586;2023-09-12T03:18:38;20.40;76.90
38183;DHT22;23991;52.430;10.586;2023-09-12T03:21:05;20.40;77.30
38183;DHT22;23991;52.430;10.586;2023-09-12T03:23:31;20.30;77.50
38183;DHT22;23991;52.430;10.586;2023-09-12T03:26:04;20.30;77.70
38183;DHT22;23991;52.430;10.586;2023-09-12T03:28:30;20.30;77.80
38183;DHT22;23991;52.430;10.586;2023-09-12T03:31:09;20.30;77.80
38183;DHT22;23991;52.430;10.586;2023-09-12T03:33:39;20.30;77.80
38183;DHT22;23991;52.430;10.586;2023-09-12T03:36:06;20.30;77.70
38183;DHT22;23991;52.430;10.586;2023-09-12T03:38:32;20.30;77.90
38183;DHT22;23991;52.430;10.586;2023-09-12T03:40:58;20.30;77.90
38183;DHT22;23991;52.430;10.586;2023-09-12T03:43:24;20.30;77.90
38183;DHT22;23991;52.430;10.586;2023-09-12T03:45:50;20.30;77.90
38183;DHT22;23991;52.430;10.586;2023-09-12T03:48:16;20.30;77.90
38183;DHT22;23991;52.430;10.586;2023-09-12T03:50:41;20.20;77.90
38183;DHT22;23991;52.430;10.586;2023-09-12T03:53:07;20.20;77.90
38183;DHT22;23991;52.430;10.586;2023-09-12T03:55:33;20.20;77.90
38183;DHT22;23991;52.430;10.586;2023-09-12T03:57:58;20.20;78.00
38183;DHT22;23991;52.430;10.586;2023-09-12T04:00:24;20.20;78.10
38183;DHT22;23991;52.430;10.586;2023-09-12T04:02:50;20.20;78.10
38183;DHT22;23991;52.430;10.586;2023-09-12T04:05:16;20.20;78.10
38183;DHT22;23991;52.430;10.586;2023-09-12T04:07:41;20.20;78.20
38183;DHT22;23991;52.430;10.586;2023-09-12T04:10:07;20.20;78.10
38183;DHT22;23991;52.430;10.586;2023-09-12T04:12:33;20.20;78.10
38183;DHT22;23991;52.430;10.586;2023-09-12T04:14:59;20.10;78.10
38183;DHT22;23991;52.430;10.586;2023-09-12T04:17:25;20.20;78.10
38183;DHT22;23991;52.430;10.586;2023-09-12T04:19:50;20.20;78.10
38183;DHT22;23991;52.430;10.586;2023-09-12T04:22:16;20.10;78.10
38183;DHT22;23991;52.430;10.586;2023-09-12T04:24:41;20.10;78.10
38183;DHT22;23991;52.430;10.586;2023-09-12T04:27:07;20.10;78.00
38183;DHT22;23991;52.430;10.586;2023-09-12T04:29:33;20.10;78.10
38183;DHT22;23991;52.430;10.586;2023-09-12T04:32:04;20.00;78.00
38183;DHT22;23991;52.430;10.586;2023-09-12T04:34:30;20.00;78.10
38183;DHT22;23991;52.430;10.586;2023-09-12T04:36:56;20.10;78.30
38183;DHT22;23991;52.430;10.586;2023-09-12T04:39:22;20.10;78.30
38183;DHT22;23991;52.430;10.586;2023-09-12T04:41:48;20.20;78.30
38183;DHT22;23991;52.430;10.586;2023-09-12T04:44:14;20.10;78.50
38183;DHT22;23991;52.430;10.586;2023-09-12T04:46:39;20.10;78.30
38183;DHT22;23991;52.430;10.586;2023-09-12T04:49:05;20.10;78.90
38183;DHT22;23991;52.430;10.586;2023-09-12T05:19:55;20.40;79.50
38183;DHT22;23991;52.430;10.586;2023-09-12T05:22:23;20.40;79.40
38183;DHT22;23991;52.430;10.586;2023-09-12T05:24:54;20.50;79.40
38183;DHT22;23991;52.430;10.586;2023-09-12T05:34:20;20.80;78.50
38183;DHT22;23991;52.430;10.586;2023-09-12T05:40:26;21.10;78.20
38183;DHT22;23991;52.430;10.586;2023-09-12T05:42:52;21.30;77.80
38183;DHT22;23991;52.430;10.586;2023-09-12T05:45:38;21.30;77.40
38183;DHT22;23991;52.430;10.586;2023-09-12T05:57:48;21.90;75.70
38183;DHT22;23991;52.430;10.586;2023-09-12T06:00:18;22.00;75.30
38183;DHT22;23991;52.430;10.586;2023-09-12T06:02:44;22.10;74.80
38183;DHT22;23991;52.430;10.586;2023-09-12T06:05:10;22.10;74.20
38183;DHT22;23991;52.430;10.586;2023-09-12T06:07:36;22.20;74.00
38183;DHT22;23991;52.430;10.586;2023-09-12T06:10:05;22.40;74.00
38183;DHT22;23991;52.430;10.586;2023-09-12T06:12:30;22.50;73.20
38183;DHT22;23991;52.430;10.586;2023-09-12T06:14:59;22.50;72.80
38183;DHT22;23991;52.430;10.586;2023-09-12T06:17:25;22.60;72.80
38183;DHT22;23991;52.430;10.586;2023-09-12T06:19:50;22.60;72.70
38183;DHT22;23991;52.430;10.586;2023-09-12T06:22:17;22.70;72.30
38183;DHT22;23991;52.430;10.586;2023-09-12T06:24:43;22.70;71.90
38183;DHT22;23991;52.430;10.586;2023-09-12T06:27:09;22.80;71.80
38183;DHT22;23991;52.430;10.586;2023-09-12T06:29:37;22.70;71.90
38183;DHT22;23991;52.430;10.586;2023-09-12T06:32:04;22.80;71.90
38183;DHT22;23991;52.430;10.586;2023-09-12T06:34:30;22.80;72.00
38183;DHT22;23991;52.430;10.586;2023-09-12T06:36:55;22.80;72.00
38183;DHT22;23991;52.430;10.586;2023-09-12T06:39:21;22.90;71.60
38183;DHT22;23991;52.430;10.586;2023-09-12T06:41:50;22.90;71.70
38183;DHT22;23991;52.430;10.586;2023-09-12T06:44:16;23.00;71.50
38183;DHT22;23991;52.430;10.586;2023-09-12T06:46:41;23.00;71.30
38183;DHT22;23991;52.430;10.586;2023-09-12T06:49:07;23.00;71.30
38183;DHT22;23991;52.430;10.586;2023-09-12T06:51:33;23.00;71.70
38183;DHT22;23991;52.430;10.586;2023-09-12T06:53:59;23.00;71.90
38183;DHT22;23991;52.430;10.586;2023-09-12T06:56:25;23.00;72.10
38183;DHT22;23991;52.430;10.586;2023-09-12T06:58:51;23.10;71.90
38183;DHT22;23991;52.430;10.586;2023-09-12T07:01:18;23.10;72.70
38183;DHT22;23991;52.430;10.586;2023-09-12T07:03:44;23.10;73.10
38183;DHT22;23991;52.430;10.586;2023-09-12T07:06:10;23.10;73.10
38183;DHT22;23991;52.430;10.586;2023-09-12T07:08:36;23.10;73.10
38183;DHT22;23991;52.430;10.586;2023-09-12T07:11:02;23.00;72.90
38183;DHT22;23991;52.430;10.586;2023-09-12T07:13:32;23.10;73.30
38183;DHT22;23991;52.430;10.586;2023-09-12T07:15:58;23.00;73.20
38183;DHT22;23991;52.430;10.586;2023-09-12T07:18:24;23.10;73.60
38183;DHT22;23991;52.430;10.586;2023-09-12T07:21:04;23.00;72.80
38183;DHT22;23991;52.430;10.586;2023-09-12T07:23:31;23.00;73.00
38183;DHT22;23991;52.430;10.586;2023-09-12T07:25:57;23.00;73.00
38183;DHT22;23991;52.430;10.586;2023-09-12T07:28:24;23.00;72.80
38183;DHT22;23991;52.430;10.586;2023-09-12T07:30:50;23.00;72.40
38183;DHT22;23991;52.430;10.586;2023-09-12T07:33:15;23.00;72.20
38183;DHT22;23991;52.430;10.586;2023-09-12T07:35:41;23.00;72.50
38183;DHT22;23991;52.430;10.586;2023-09-12T07:38:07;22.90;72.70
38183;DHT22;23991;52.430;10.586;2023-09-12T07:40:33;22.80;73.20
38183;DHT22;23991;52.430;10.586;2023-09-12T07:42:58;22.70;73.50
38183;DHT22;23991;52.430;10.586;2023-09-12T07:45:24;22.80;73.30
38183;DHT22;23991;52.430;10.586;2023-09-12T07:47:50;22.80;73.50
38183;DHT22;23991;52.430;10.586;2023-09-12T07:50:16;22.80;73.40
38183;DHT22;23991;52.430;10.586;2023-09-12T07:52:42;22.70;73.20
38183;DHT22;23991;52.430;10.586;2023-09-12T07:55:08;22.70;73.20
38183;DHT22;23991;52.430;10.586;2023-09-12T07:57:34;22.60;73.60
38183;DHT22;23991;52.430;10.586;2023-09-12T08:00:00;22.60;73.60
38183;DHT22;23991;52.430;10.586;2023-09-12T08:02:26;22.50;73.70
38183;DHT22;23991;52.430;10.586;2023-09-12T08:04:52;22.50;73.80
38183;DHT22;23991;52.430;10.586;2023-09-12T08:07:19;22.50;73.50
38183;DHT22;23991;52.430;10.586;2023-09-12T08:09:56;22.60;73.10
38183;DHT22;23991;52.430;10.586;2023-09-12T08:12:26;22.70;72.80
38183;DHT22;23991;52.430;10.586;2023-09-12T08:14:53;22.70;72.30
38183;DHT22;23991;52.430;10.586;2023-09-12T08:17:19;22.80;72.10
38183;DHT22;23991;52.430;10.586;2023-09-12T08:19:46;22.80;72.10
38183;DHT22;23991;52.430;10.586;2023-09-12T08:22:12;23.00;71.90
38183;DHT22;23991;52.430;10.586;2023-09-12T08:24:38;22.90;72.10
38183;DHT22;23991;52.430;10.586;2023-09-12T08:27:05;22.90;72.20
38183;DHT22;23991;52.430;10.586;2023-09-12T08:29:32;23.00;72.20
38183;DHT22;23991;52.430;10.586;2023-09-12T08:31:58;23.20;70.80
38183;DHT22;23991;52.430;10.586;2023-09-12T08:34:24;23.30;70.90
38183;DHT22;23991;52.430;10.586;2023-09-12T08:36:50;23.30;70.90
38183;DHT22;23991;52.430;10.586;2023-09-12T08:39:23;23.40;70.50
38183;DHT22;23991;52.430;10.586;2023-09-12T08:41:50;23.50;69.50
38183;DHT22;23991;52.430;10.586;2023-09-12T08:44:16;23.60;69.20
38183;DHT22;23991;52.430;10.586;2023-09-12T08:46:42;23.70;69.30
38183;DHT22;23991;52.430;10.586;2023-09-12T08:49:08;23.70;69.40
38183;DHT22;23991;52.430;10.586;2023-09-12T08:51:36;23.70;69.60
38183;DHT22;23991;52.430;10.586;2023-09-12T08:54:03;23.80;69.50
38183;DHT22;23991;52.430;10.586;2023-09-12T08:56:29;23.80;69.40
38183;DHT22;23991;52.430;10.586;2023-09-12T08:58:56;24.00;69.10
38183;DHT22;23991;52.430;10.586;2023-09-12T09:01:22;24.00;69.70
38183;DHT22;23991;52.430;10.586;2023-09-12T09:03:49;24.20;69.00
38183;DHT22;23991;52.430;10.586;2023-09-12T09:06:16;24.20;68.60
38183;DHT22;23991;52.430;10.586;2023-09-12T09:08:43;24.20;68.90
38183;DHT22;23991;52.430;10.586;2023-09-12T09:11:10;24.40;68.20
38183;DHT22;23991;52.430;10.586;2023-09-12T09:13:36;24.50;68.20
38183;DHT22;23991;52.430;10.586;2023-09-12T09:16:13;24.50;68.40
38183;DHT22;23991;52.430;10.586;2023-09-12T09:19:02;24.60;68.40
38183;DHT22;23991;52.430;10.586;2023-09-12T09:21:32;24.80;67.70
38183;DHT22;23991;52.430;10.586;2023-09-12T09:24:00;24.90;68.10
38183;DHT22;23991;52.430;10.586;2023-09-12T09:26:43;25.00;67.70
38183;DHT22;23991;52.430;10.586;2023-09-12T09:29:10;25.40;66.50
38183;DHT22;23991;52.430;10.586;2023-09-12T09:31:40;25.90;64.90
38183;DHT22;23991;52.430;10.586;2023-09-12T09:34:25;26.10;64.40
38183;DHT22;23991;52.430;10.586;2023-09-12T09:36:56;26.50;63.90
38183;DHT22;23991;52.430;10.586;2023-09-12T09:39:26;26.80;62.90
38183;DHT22;23991;52.430;10.586;2023-09-12T09:41:55;27.30;61.00
38183;DHT22;23991;52.430;10.586;2023-09-12T09:44:26;28.10;58.60
38183;DHT22;23991;52.430;10.586;2023-09-12T09:46:59;28.60;57.10
38183;DHT22;23991;52.430;10.586;2023-09-12T09:49:28;29.30;55.50
38183;DHT22;23991;52.430;10.586;2023-09-12T09:51:56;30.20;53.10
38183;DHT22;23991;52.430;10.586;2023-09-12T09:54:25;30.40;51.60
38183;DHT22;23991;52.430;10.586;2023-09-12T09:56:55;30.60;50.70
38183;DHT22;23991;52.430;10.586;2023-09-12T09:59:23;30.80;49.70
38183;DHT22;23991;52.430;10.586;2023-09-12T10:01:50;31.20;49.20
38183;DHT22;23991;52.430;10.586;2023-09-12T10:04:18;31.50;48.70
38183;DHT22;23991;52.430;10.586;2023-09-12T10:06:45;31.70;47.60
38183;DHT22;23991;52.430;10.586;2023-09-12T10:09:13;32.10;47.90
38183;DHT22;23991;52.430;10.586;2023-09-12T10:11:40;32.50;46.50
38183;DHT22;23991;52.430;10.586;2023-09-12T10:14:08;32.80;44.60
38183;DHT22;23991;52.430;10.586;2023-09-12T10:16:35;33.00;44.30
38183;DHT22;23991;52.430;10.586;2023-09-12T10:19:16;33.20;44.00
38183;DHT22;23991;52.430;10.586;2023-09-12T10:22:36;33.70;42.00
38183;DHT22;23991;52.430;10.586;2023-09-12T10:24:56;33.80;41.70
38183;DHT22;23991;52.430;10.586;2023-09-12T10:27:22;34.20;41.50
38183;DHT22;23991;52.430;10.586;2023-09-12T10:29:50;34.10;41.20
38183;DHT22;23991;52.430;10.586;2023-09-12T10:32:19;34.20;41.30
38183;DHT22;23991;52.430;10.586;2023-09-12T10:34:48;33.90;40.90
38183;DHT22;23991;52.430;10.586;2023-09-12T10:37:17;34.10;41.10
38183;DHT22;23991;52.430;10.586;2023-09-12T10:39:45;34.00;40.10
38183;DHT22;23991;52.430;10.586;2023-09-12T10:42:12;34.00;39.50
38183;DHT22;23991;52.430;10.586;2023-09-12T10:44:38;33.80;39.80
38183;DHT22;23991;52.430;10.586;2023-09-12T10:47:04;33.60;40.20
38183;DHT22;23991;52.430;10.586;2023-09-12T10:49:31;33.70;39.60
38183;DHT22;23991;52.430;10.586;2023-09-12T10:51:57;33.80;39.80
38183;DHT22;23991;52.430;10.586;2023-09-12T10:54:36;34.10;39.30
38183;DHT22;23991;52.430;10.586;2023-09-12T10:57:11;34.20;38.90
38183;DHT22;23991;52.430;10.586;2023-09-12T11:02:40;34.50;38.00
38183;DHT22;23991;52.430;10.586;2023-09-12T11:07:59;34.20;38.60
38183;DHT22;23991;52.430;10.586;2023-09-12T11:10:26;34.20;38.80
38183;DHT22;23991;52.430;10.586;2023-09-12T11:12:54;34.10;40.00
38183;DHT22;23991;52.430;10.586;2023-09-12T11:15:22;34.00;40.00
38183;DHT22;23991;52.430;10.586;2023-09-12T11:18:08;33.70;40.40
38183;DHT22;23991;52.430;10.586;2023-09-12T11:23:15;33.60;40.00
38183;DHT22;23991;52.430;10.586;2023-09-12T11:25:41;33.70;39.70
38183;DHT22;23991;52.430;10.586;2023-09-12T11:28:08;33.40;40.80
38183;DHT22;23991;52.430;10.586;2023-09-12T12:23:40;30.60;49.40
38183;DHT22;23991;52.430;10.586;2023-09-12T12:26:08;30.10;49.50
38183;DHT22;23991;52.430;10.586;2023-09-12T12:28:35;30.00;49.80
38183;DHT22;23991;52.430;10.586;2023-09-12T12:31:01;29.90;50.00
38183;DHT22;23991;52.430;10.586;2023-09-12T12:33:27;29.70;50.40
38183;DHT22;23991;52.430;10.586;2023-09-12T12:36:05;29.80;50.90
38183;DHT22;23991;52.430;10.586;2023-09-12T12:38:38;30.00;50.30
38183;DHT22;23991;52.430;10.586;2023-09-12T12:41:03;29.80;50.30
38183;DHT22;23991;52.430;10.586;2023-09-12T12:43:30;29.70;49.90
38183;DHT22;23991;52.430;10.586;2023-09-12T12:45:57;29.70;50.30
38183;DHT22;23991;52.430;10.586;2023-09-12T12:48:34;29.70;50.30
38183;DHT22;23991;52.430;10.586;2023-09-12T12:51:24;29.60;50.50
38183;DHT22;23991;52.430;10.586;2023-09-12T12:53:54;29.60;50.30
38183;DHT22;23991;52.430;10.586;2023-09-12T12:56:26;29.60;50.00
38183;DHT22;23991;52.430;10.586;2023-09-12T12:58:54;29.60;50.30
38183;DHT22;23991;52.430;10.586;2023-09-12T13:01:21;29.50;50.30
38183;DHT22;23991;52.430;10.586;2023-09-12T13:03:47;29.40;50.80
38183;DHT22;23991;52.430;10.586;2023-09-12T13:06:25;29.50;51.00
38183;DHT22;23991;52.430;10.586;2023-09-12T13:08:55;29.40;50.70
38183;DHT22;23991;52.430;10.586;2023-09-12T13:11:35;29.60;51.00
38183;DHT22;23991;52.430;10.586;2023-09-12T13:14:01;29.70;50.10
38183;DHT22;23991;52.430;10.586;2023-09-12T13:16:27;29.60;49.30
38183;DHT22;23991;52.430;10.586;2023-09-12T13:18:53;29.60;48.90
38183;DHT22;23991;52.430;10.586;2023-09-12T13:21:18;29.90;49.80
38183;DHT22;23991;52.430;10.586;2023-09-12T13:23:44;29.70;49.90
38183;DHT22;23991;52.430;10.586;2023-09-12T13:26:10;29.60;50.40
38183;DHT22;23991;52.430;10.586;2023-09-12T13:32:17;29.00;52.70
38183;DHT22;23991;52.430;10.586;2023-09-12T13:34:47;28.50;54.90
38183;DHT22;23991;52.430;10.586;2023-09-12T13:37:12;28.50;54.70
38183;DHT22;23991;52.430;10.586;2023-09-12T13:39:38;28.70;55.20
38183;DHT22;23991;52.430;10.586;2023-09-12T13:42:06;28.50;54.80
38183;DHT22;23991;52.430;10.586;2023-09-12T13:44:33;29.10;54.10
38183;DHT22;23991;52.430;10.586;2023-09-12T13:46:59;29.20;54.20
38183;DHT22;23991;52.430;10.586;2023-09-12T13:49:25;29.20;53.80
38183;DHT22;23991;52.430;10.586;2023-09-12T13:51:50;29.40;54.50
38183;DHT22;23991;52.430;10.586;2023-09-12T13:54:16;29.80;52.70
38183;DHT22;23991;52.430;10.586;2023-09-12T13:56:41;30.20;50.60
38183;DHT22;23991;52.430;10.586;2023-09-12T13:59:07;30.90;48.70
38183;DHT22;23991;52.430;10.586;2023-09-12T14:01:33;31.20;48.30
38183;DHT22;23991;52.430;10.586;2023-09-12T14:04:06;31.20;49.10
38183;DHT22;23991;52.430;10.586;2023-09-12T14:09:42;31.90;45.70
38183;DHT22;23991;52.430;10.586;2023-09-12T14:31:54;31.30;47.90
38183;DHT22;23991;52.430;10.586;2023-09-12T14:34:29;30.90;47.80
38183;DHT22;23991;52.430;10.586;2023-09-12T14:36:57;30.80;46.60
38183;DHT22;23991;52.430;10.586;2023-09-12T14:39:24;30.80;45.80
38183;DHT22;23991;52.430;10.586;2023-09-12T14:41:50;30.70;46.30
38183;DHT22;23991;52.430;10.586;2023-09-12T14:46:45;30.80;46.40
38183;DHT22;23991;52.430;10.586;2023-09-12T14:49:11;31.00;47.00
38183;DHT22;23991;52.430;10.586;2023-09-12T14:51:37;31.20;44.50
38183;DHT22;23991;52.430;10.586;2023-09-12T14:54:04;31.00;45.00
38183;DHT22;23991;52.430;10.586;2023-09-12T14:56:30;31.00;45.50
38183;DHT22;23991;52.430;10.586;2023-09-12T14:58:56;30.90;45.70
38183;DHT22;23991;52.430;10.586;2023-09-12T15:01:22;30.70;46.20
38183;DHT22;23991;52.430;10.586;2023-09-12T15:03:50;30.70;46.10
38183;DHT22;23991;52.430;10.586;2023-09-12T15:06:16;30.60;47.50
38183;DHT22;23991;52.430;10.586;2023-09-12T15:08:42;30.60;46.70
38183;DHT22;23991;52.430;10.586;2023-09-12T15:11:08;30.50;45.60
38183;DHT22;23991;52.430;10.586;2023-09-12T15:13:34;30.70;44.30
38183;DHT22;23991;52.430;10.586;2023-09-12T15:16:00;30.70;45.10
38183;DHT22;23991;52.430;10.586;2023-09-12T15:18:26;30.90;44.30
38183;DHT22;23991;52.430;10.586;2023-09-12T15:20:52;31.10;43.50
38183;DHT22;23991;52.430;10.586;2023-09-12T15:23:19;31.10;44.20
38183;DHT22;23991;52.430;10.586;2023-09-12T15:25:50;31.10;44.50
38183;DHT22;23991;52.430;10.586;2023-09-12T15:28:16;31.10;45.30
38183;DHT22;23991;52.430;10.586;2023-09-12T15:30:42;31.10;45.70
38183;DHT22;23991;52.430;10.586;2023-09-12T15:33:08;30.80;45.90
38183;DHT22;23991;52.430;10.586;2023-09-12T15:35:34;30.80;45.30
38183;DHT22;23991;52.430;10.586;2023-09-12T15:38:00;30.70;45.60
38183;DHT22;23991;52.430;10.586;2023-09-12T15:40:26;30.70;45.30
38183;DHT22;23991;52.430;10.586;2023-09-12T15:42:52;30.70;45.90
38183;DHT22;23991;52.430;10.586;2023-09-12T15:45:18;30.60;46.60
38183;DHT22;23991;52.430;10.586;2023-09-12T15:47:46;30.40;46.80
38183;DHT22;23991;52.430;10.586;2023-09-12T15:50:11;30.20;47.70
38183;DHT22;23991;52.430;10.586;2023-09-12T15:52:38;30.20;48.60
38183;DHT22;23991;52.430;10.586;2023-09-12T15:55:09;30.40;48.70
38183;DHT22;23991;52.430;10.586;2023-09-12T15:57:35;30.60;47.60
38183;DHT22;23991;52.430;10.586;2023-09-12T16:00:08;30.40;48.40
38183;DHT22;23991;52.430;10.586;2023-09-12T16:02:40;30.20;48.90
38183;DHT22;23991;52.430;10.586;2023-09-12T16:05:07;30.20;49.40
38183;DHT22;23991;52.430;10.586;2023-09-12T16:07:33;30.00;49.60
38183;DHT22;23991;52.430;10.586;2023-09-12T16:09:59;30.00;49.30
38183;DHT22;23991;52.430;10.586;2023-09-12T16:12:26;29.80;49.90
38183;DHT22;23991;52.430;10.586;2023-09-12T16:14:55;29.90;49.70
38183;DHT22;23991;52.430;10.586;2023-09-12T16:17:24;29.70;50.10
38183;DHT22;23991;52.430;10.586;2023-09-12T16:19:51;29.90;50.20
38183;DHT22;23991;52.430;10.586;2023-09-12T16:22:17;29.80;50.00
38183;DHT22;23991;52.430;10.586;2023-09-12T16:24:43;29.50;50.60
38183;DHT22;23991;52.430;10.586;2023-09-12T16:27:08;29.40;50.80
38183;DHT22;23991;52.430;10.586;2023-09-12T16:29:35;29.30;51.30
38183;DHT22;23991;52.430;10.586;2023-09-12T16:32:01;29.20;51.20
38183;DHT22;23991;52.430;10.586;2023-09-12T16:34:28;29.30;50.80
38183;DHT22;23991;52.430;10.586;2023-09-12T16:36:54;29.20;51.00
38183;DHT22;23991;52.430;10.586;2023-09-12T16:39:20;29.10;51.50
38183;DHT22;23991;52.430;10.586;2023-09-12T16:41:46;29.00;51.40
38183;DHT22;23991;52.430;10.586;2023-09-12T16:44:12;28.80;51.70
38183;DHT22;23991;52.430;10.586;2023-09-12T16:46:39;28.70;52.20
38183;DHT22;23991;52.430;10.586;2023-09-12T16:49:05;28.70;52.50
38183;DHT22;23991;52.430;10.586;2023-09-12T16:51:31;28.40;52.50
38183;DHT22;23991;52.430;10.586;2023-09-12T16:53:56;28.30;52.90
38183;DHT22;23991;52.430;10.586;2023-09-12T16:56:22;28.20;53.30
38183;DHT22;23991;52.430;10.586;2023-09-12T16:58:48;28.10;53.60
38183;DHT22;23991;52.430;10.586;2023-09-12T17:01:14;28.10;53.80
38183;DHT22;23991;52.430;10.586;2023-09-12T17:03:43;28.00;54.00
38183;DHT22;23991;52.430;10.586;2023-09-12T17:06:09;27.80;54.60
38183;DHT22;23991;52.430;10.586;2023-09-12T17:08:35;27.80;54.90
38183;DHT22;23991;52.430;10.586;2023-09-12T17:11:01;27.70;55.10
38183;DHT22;23991;52.430;10.586;2023-09-12T17:13:27;27.70;55.50
38183;DHT22;23991;52.430;10.586;2023-09-12T17:15:55;27.40;56.20
38183;DHT22;23991;52.430;10.586;2023-09-12T17:18:21;27.40;56.10
38183;DHT22;23991;52.430;10.586;2023-09-12T17:20:46;27.40;56.50
38183;DHT22;23991;52.430;10.586;2023-09-12T17:23:12;27.50;55.90
38183;DHT22;23991;52.430;10.586;2023-09-12T17:25:38;27.30;56.00
38183;DHT22;23991;52.430;10.586;2023-09-12T17:28:04;27.30;56.00
38183;DHT22;23991;52.430;10.586;2023-09-12T17:30:30;27.10;56.30
38183;DHT22;23991;52.430;10.586;2023-09-12T17:32:56;26.90;56.90
38183;DHT22;23991;52.430;10.586;2023-09-12T17:35:22;27.00;56.90
38183;DHT22;23991;52.430;10.586;2023-09-12T17:37:48;26.80;57.40
38183;DHT22;23991;52.430;10.586;2023-09-12T17:40:14;26.80;57.40